sensor_id;sensor_type;location;lat;lon;timestamp;P1;durP1;ratioP1;P2;durP2;ratioP2
13483;SDS011;6814;57.786;12.080;2023-02-21T00:02:05;23.03;;;5.97;;
13483;SDS011;6814;57.786;12.080;2023-02-21T00:04:48;19.97;;;4.83;;
13483;SDS011;6814;57.786;12.080;2023-02-21T00:07:34;24.30;;;4.27;;
13483;SDS011;6814;57.786;12.080;2023-02-21T00:10:17;18.57;;;4.50;;
13483;SDS011;6814;57.786;12.080;2023-02-21T00:13:01;22.30;;;4.90;;
13483;SDS011;6814;57.786;12.080;2023-02-21T00:15:45;25.50;;;5.13;;
13483;SDS011;6814;57.786;12.080;2023-02-21T00:18:32;19.20;;;5.03;;
13483;SDS011;6814;57.786;12.080;2023-02-21T00:21:16;17.30;;;3.40;;
13483;SDS011;6814;57.786;12.080;2023-02-21T00:24:01;13.27;;;3.73;;
13483;SDS011;6814;57.786;12.080;2023-02-21T00:26:44;16.43;;;4.50;;
13483;SDS011;6814;57.786;12.080;2023-02-21T00:29:28;27.43;;;6.60;;
13483;SDS011;6814;57.786;12.080;2023-02-21T00:32:12;20.30;;;4.73;;
13483;SDS011;6814;57.786;12.080;2023-02-21T00:34:56;21.63;;;5.53;;
13483;SDS011;6814;57.786;12.080;2023-02-21T00:37:40;23.27;;;6.17;;
13483;SDS011;6814;57.786;12.080;2023-02-21T00:40:26;24.00;;;5.27;;
13483;SDS011;6814;57.786;12.080;2023-02-21T00:43:09;29.47;;;5.57;;
13483;SDS011;6814;57.786;12.080;2023-02-21T00:45:53;36.73;;;7.17;;
13483;SDS011;6814;57.786;12.080;2023-02-21T00:48:37;26.73;;;5.77;;
13483;SDS011;6814;57.786;12.080;2023-02-21T00:51:21;32.60;;;7.23;;
13483;SDS011;6814;57.786;12.080;2023-02-21T00:54:05;29.37;;;7.13;;
13483;SDS011;6814;57.786;12.080;2023-02-21T00:56:50;34.60;;;6.77;;
13483;SDS011;6814;57.786;12.080;2023-02-21T00:59:34;35.13;;;6.87;;
13483;SDS011;6814;57.786;12.080;2023-02-21T01:02:18;31.77;;;7.47;;
13483;SDS011;6814;57.786;12.080;2023-02-21T01:05:02;31.57;;;5.57;;
13483;SDS011;6814;57.786;12.080;2023-02-21T01:07:46;21.97;;;5.33;;
13483;SDS011;6814;57.786;12.080;2023-02-21T01:10:30;31.47;;;6.77;;
13483;SDS011;6814;57.786;12.080;2023-02-21T01:13:15;23.37;;;6.23;;
13483;SDS011;6814;57.786;12.080;2023-02-21T01:15:59;35.23;;;6.30;;
13483;SDS011;6814;57.786;12.080;2023-02-21T01:18:42;26.00;;;6.93;;
13483;SDS011;6814;57.786;12.080;2023-02-21T01:21:26;32.00;;;5.53;;
13483;SDS011;6814;57.786;12.080;2023-02-21T01:24:11;29.83;;;6.57;;
13483;SDS011;6814;57.786;12.080;2023-02-21T01:26:55;23.63;;;5.43;;
13483;SDS011;6814;57.786;12.080;2023-02-21T01:29:41;21.33;;;4.80;;
13483;SDS011;6814;57.786;12.080;2023-02-21T01:32:24;25.00;;;4.60;;
13483;SDS011;6814;57.786;12.080;2023-02-21T01:35:08;23.13;;;5.03;;
13483;SDS011;6814;57.786;12.080;2023-02-21T01:37:52;26.63;;;4.80;;
13483;SDS011;6814;57.786;12.080;2023-02-21T01:40:37;21.00;;;5.03;;
13483;SDS011;6814;57.786;12.080;2023-02-21T01:43:21;26.10;;;5.13;;
13483;SDS011;6814;57.786;12.080;2023-02-21T01:46:07;15.67;;;4.33;;
13483;SDS011;6814;57.786;12.080;2023-02-21T01:48:52;25.67;;;5.03;;
13483;SDS011;6814;57.786;12.080;2023-02-21T01:51:40;23.80;;;4.67;;
13483;SDS011;6814;57.786;12.080;2023-02-21T01:54:24;19.93;;;4.50;;
13483;SDS011;6814;57.786;12.080;2023-02-21T01:57:08;13.83;;;3.13;;
13483;SDS011;6814;57.786;12.080;2023-02-21T01:59:53;18.33;;;4.27;;
13483;SDS011;6814;57.786;12.080;2023-02-21T02:02:42;27.40;;;5.57;;
13483;SDS011;6814;57.786;12.080;2023-02-21T02:08:16;22.63;;;5.23;;
13483;SDS011;6814;57.786;12.080;2023-02-21T02:11:02;21.33;;;5.10;;
13483;SDS011;6814;57.786;12.080;2023-02-21T02:13:52;30.40;;;5.40;;
13483;SDS011;6814;57.786;12.080;2023-02-21T02:16:23;18.70;;;3.70;;
13483;SDS011;6814;57.786;12.080;2023-02-21T02:19:01;20.47;;;4.67;;
13483;SDS011;6814;57.786;12.080;2023-02-21T02:21:36;20.73;;;4.57;;
13483;SDS011;6814;57.786;12.080;2023-02-21T02:27:08;28.63;;;5.33;;
13483;SDS011;6814;57.786;12.080;2023-02-21T02:32:29;28.93;;;6.57;;
13483;SDS011;6814;57.786;12.080;2023-02-21T02:34:59;28.37;;;5.47;;
13483;SDS011;6814;57.786;12.080;2023-02-21T02:37:31;16.23;;;4.27;;
13483;SDS011;6814;57.786;12.080;2023-02-21T02:40:02;15.63;;;4.00;;
13483;SDS011;6814;57.786;12.080;2023-02-21T02:42:38;20.00;;;4.60;;
13483;SDS011;6814;57.786;12.080;2023-02-21T02:45:07;23.90;;;5.00;;
13483;SDS011;6814;57.786;12.080;2023-02-21T02:47:37;26.77;;;5.53;;
13483;SDS011;6814;57.786;12.080;2023-02-21T02:50:06;26.73;;;5.43;;
13483;SDS011;6814;57.786;12.080;2023-02-21T02:52:33;19.90;;;4.33;;
13483;SDS011;6814;57.786;12.080;2023-02-21T02:55:02;18.37;;;3.77;;
13483;SDS011;6814;57.786;12.080;2023-02-21T02:57:29;16.93;;;4.13;;
13483;SDS011;6814;57.786;12.080;2023-02-21T03:00:02;18.33;;;3.87;;
13483;SDS011;6814;57.786;12.080;2023-02-21T03:02:40;25.60;;;4.30;;
13483;SDS011;6814;57.786;12.080;2023-02-21T03:05:22;20.30;;;4.17;;
13483;SDS011;6814;57.786;12.080;2023-02-21T03:07:54;17.33;;;3.43;;
13483;SDS011;6814;57.786;12.080;2023-02-21T03:10:26;16.93;;;3.47;;
13483;SDS011;6814;57.786;12.080;2023-02-21T03:12:54;19.07;;;4.60;;
13483;SDS011;6814;57.786;12.080;2023-02-21T03:15:26;14.63;;;3.13;;
13483;SDS011;6814;57.786;12.080;2023-02-21T03:17:55;28.13;;;4.37;;
13483;SDS011;6814;57.786;12.080;2023-02-21T03:20:23;21.67;;;3.87;;
13483;SDS011;6814;57.786;12.080;2023-02-21T03:22:51;13.27;;;3.37;;
13483;SDS011;6814;57.786;12.080;2023-02-21T03:25:17;10.43;;;2.10;;
13483;SDS011;6814;57.786;12.080;2023-02-21T03:27:46;20.80;;;3.97;;
13483;SDS011;6814;57.786;12.080;2023-02-21T03:30:12;13.27;;;3.20;;
13483;SDS011;6814;57.786;12.080;2023-02-21T03:32:41;16.03;;;3.43;;
13483;SDS011;6814;57.786;12.080;2023-02-21T03:35:08;11.73;;;3.40;;
13483;SDS011;6814;57.786;12.080;2023-02-21T03:37:37;12.60;;;2.50;;
13483;SDS011;6814;57.786;12.080;2023-02-21T03:40:05;15.47;;;3.70;;
13483;SDS011;6814;57.786;12.080;2023-02-21T03:42:32;8.20;;;2.43;;
13483;SDS011;6814;57.786;12.080;2023-02-21T03:44:58;12.37;;;3.07;;
13483;SDS011;6814;57.786;12.080;2023-02-21T03:47:25;10.67;;;3.30;;
13483;SDS011;6814;57.786;12.080;2023-02-21T03:49:51;9.43;;;2.30;;
13483;SDS011;6814;57.786;12.080;2023-02-21T03:52:18;17.03;;;3.17;;
13483;SDS011;6814;57.786;12.080;2023-02-21T03:54:45;11.47;;;2.53;;
13483;SDS011;6814;57.786;12.080;2023-02-21T03:57:12;15.40;;;3.07;;
13483;SDS011;6814;57.786;12.080;2023-02-21T03:59:38;9.90;;;2.00;;
13483;SDS011;6814;57.786;12.080;2023-02-21T04:02:05;9.63;;;1.80;;
13483;SDS011;6814;57.786;12.080;2023-02-21T04:04:31;11.07;;;2.90;;
13483;SDS011;6814;57.786;12.080;2023-02-21T04:06:58;11.40;;;2.37;;
13483;SDS011;6814;57.786;12.080;2023-02-21T04:09:24;13.73;;;2.20;;
13483;SDS011;6814;57.786;12.080;2023-02-21T04:11:52;11.23;;;3.00;;
13483;SDS011;6814;57.786;12.080;2023-02-21T04:14:19;8.93;;;1.97;;
13483;SDS011;6814;57.786;12.080;2023-02-21T04:16:45;12.50;;;2.40;;
13483;SDS011;6814;57.786;12.080;2023-02-21T04:19:11;11.10;;;2.50;;
13483;SDS011;6814;57.786;12.080;2023-02-21T04:21:38;9.90;;;2.07;;
13483;SDS011;6814;57.786;12.080;2023-02-21T04:24:04;9.73;;;2.53;;
13483;SDS011;6814;57.786;12.080;2023-02-21T04:26:31;16.30;;;2.73;;
13483;SDS011;6814;57.786;12.080;2023-02-21T04:29:00;12.77;;;2.03;;
13483;SDS011;6814;57.786;12.080;2023-02-21T04:31:26;9.50;;;2.00;;
13483;SDS011;6814;57.786;12.080;2023-02-21T04:33:53;14.97;;;2.80;;
13483;SDS011;6814;57.786;12.080;2023-02-21T04:36:19;11.27;;;2.20;;
13483;SDS011;6814;57.786;12.080;2023-02-21T04:38:46;12.37;;;2.70;;
13483;SDS011;6814;57.786;12.080;2023-02-21T04:41:14;14.13;;;2.70;;
13483;SDS011;6814;57.786;12.080;2023-02-21T04:43:40;14.90;;;2.83;;
13483;SDS011;6814;57.786;12.080;2023-02-21T04:46:08;8.07;;;2.60;;
13483;SDS011;6814;57.786;12.080;2023-02-21T04:48:34;12.33;;;3.03;;
13483;SDS011;6814;57.786;12.080;2023-02-21T04:51:01;8.20;;;1.90;;
13483;SDS011;6814;57.786;12.080;2023-02-21T04:53:27;6.43;;;1.47;;
13483;SDS011;6814;57.786;12.080;2023-02-21T04:55:54;11.53;;;2.40;;
13483;SDS011;6814;57.786;12.080;2023-02-21T04:58:20;11.90;;;2.80;;
13483;SDS011;6814;57.786;12.080;2023-02-21T05:00:47;13.57;;;3.05;;
13483;SDS011;6814;57.786;12.080;2023-02-21T05:03:15;15.87;;;2.77;;
13483;SDS011;6814;57.786;12.080;2023-02-21T05:05:42;13.73;;;2.67;;
13483;SDS011;6814;57.786;12.080;2023-02-21T05:08:09;11.33;;;2.27;;
13483;SDS011;6814;57.786;12.080;2023-02-21T05:10:35;10.90;;;2.20;;
13483;SDS011;6814;57.786;12.080;2023-02-21T05:13:02;10.00;;;2.00;;
13483;SDS011;6814;57.786;12.080;2023-02-21T05:15:29;12.67;;;2.40;;
13483;SDS011;6814;57.786;12.080;2023-02-21T05:17:55;12.87;;;2.63;;
13483;SDS011;6814;57.786;12.080;2023-02-21T05:20:24;10.83;;;2.70;;
13483;SDS011;6814;57.786;12.080;2023-02-21T05:22:50;11.80;;;2.20;;
13483;SDS011;6814;57.786;12.080;2023-02-21T05:25:17;12.07;;;2.50;;
13483;SDS011;6814;57.786;12.080;2023-02-21T05:27:44;13.10;;;2.77;;
13483;SDS011;6814;57.786;12.080;2023-02-21T05:30:12;10.20;;;1.93;;
13483;SDS011;6814;57.786;12.080;2023-02-21T05:32:39;10.43;;;1.83;;
13483;SDS011;6814;57.786;12.080;2023-02-21T05:35:06;12.43;;;2.53;;
13483;SDS011;6814;57.786;12.080;2023-02-21T05:37:33;13.13;;;2.30;;
13483;SDS011;6814;57.786;12.080;2023-02-21T05:40:00;13.17;;;2.37;;
13483;SDS011;6814;57.786;12.080;2023-02-21T05:42:27;14.20;;;2.93;;
13483;SDS011;6814;57.786;12.080;2023-02-21T05:44:53;9.27;;;1.90;;
13483;SDS011;6814;57.786;12.080;2023-02-21T05:47:19;10.07;;;2.07;;
13483;SDS011;6814;57.786;12.080;2023-02-21T05:49:46;15.20;;;2.30;;
13483;SDS011;6814;57.786;12.080;2023-02-21T05:52:13;9.03;;;2.17;;
13483;SDS011;6814;57.786;12.080;2023-02-21T05:54:41;10.67;;;2.60;;
13483;SDS011;6814;57.786;12.080;2023-02-21T05:57:08;13.17;;;2.50;;
13483;SDS011;6814;57.786;12.080;2023-02-21T05:59:34;10.07;;;1.80;;
13483;SDS011;6814;57.786;12.080;2023-02-21T06:02:02;5.97;;;1.87;;
13483;SDS011;6814;57.786;12.080;2023-02-21T06:04:28;10.43;;;2.00;;
13483;SDS011;6814;57.786;12.080;2023-02-21T06:06:55;11.30;;;2.30;;
13483;SDS011;6814;57.786;12.080;2023-02-21T06:09:21;10.47;;;2.20;;
13483;SDS011;6814;57.786;12.080;2023-02-21T06:11:49;13.33;;;2.50;;
13483;SDS011;6814;57.786;12.080;2023-02-21T06:14:17;16.17;;;2.50;;
13483;SDS011;6814;57.786;12.080;2023-02-21T06:16:44;13.63;;;2.83;;
13483;SDS011;6814;57.786;12.080;2023-02-21T06:19:11;10.77;;;2.00;;
13483;SDS011;6814;57.786;12.080;2023-02-21T06:21:37;9.90;;;2.10;;
13483;SDS011;6814;57.786;12.080;2023-02-21T06:24:06;8.27;;;1.80;;
13483;SDS011;6814;57.786;12.080;2023-02-21T06:26:32;16.17;;;2.40;;
13483;SDS011;6814;57.786;12.080;2023-02-21T06:29:00;14.17;;;2.77;;
13483;SDS011;6814;57.786;12.080;2023-02-21T06:31:27;9.43;;;1.93;;
13483;SDS011;6814;57.786;12.080;2023-02-21T06:33:53;12.67;;;2.90;;
13483;SDS011;6814;57.786;12.080;2023-02-21T06:36:20;10.30;;;1.97;;
13483;SDS011;6814;57.786;12.080;2023-02-21T06:38:49;11.00;;;1.67;;
13483;SDS011;6814;57.786;12.080;2023-02-21T06:41:15;16.00;;;2.73;;
13483;SDS011;6814;57.786;12.080;2023-02-21T06:43:42;11.93;;;2.20;;
13483;SDS011;6814;57.786;12.080;2023-02-21T06:46:14;18.40;;;2.57;;
13483;SDS011;6814;57.786;12.080;2023-02-21T06:48:40;12.27;;;2.70;;
13483;SDS011;6814;57.786;12.080;2023-02-21T06:51:06;9.53;;;1.53;;
13483;SDS011;6814;57.786;12.080;2023-02-21T06:53:35;8.57;;;2.10;;
13483;SDS011;6814;57.786;12.080;2023-02-21T06:56:01;13.50;;;2.80;;
13483;SDS011;6814;57.786;12.080;2023-02-21T06:58:28;10.17;;;2.20;;
13483;SDS011;6814;57.786;12.080;2023-02-21T07:00:54;8.87;;;1.90;;
13483;SDS011;6814;57.786;12.080;2023-02-21T07:03:22;12.93;;;2.17;;
13483;SDS011;6814;57.786;12.080;2023-02-21T07:05:48;10.63;;;2.20;;
13483;SDS011;6814;57.786;12.080;2023-02-21T07:08:15;14.63;;;2.43;;
13483;SDS011;6814;57.786;12.080;2023-02-21T07:10:41;12.53;;;2.40;;
13483;SDS011;6814;57.786;12.080;2023-02-21T07:13:08;9.23;;;1.80;;
13483;SDS011;6814;57.786;12.080;2023-02-21T07:15:34;10.23;;;2.00;;
13483;SDS011;6814;57.786;12.080;2023-02-21T07:18:01;5.87;;;1.60;;
13483;SDS011;6814;57.786;12.080;2023-02-21T07:20:28;7.47;;;1.97;;
13483;SDS011;6814;57.786;12.080;2023-02-21T07:22:57;14.33;;;3.17;;
13483;SDS011;6814;57.786;12.080;2023-02-21T07:25:23;14.80;;;2.70;;
13483;SDS011;6814;57.786;12.080;2023-02-21T07:27:50;9.03;;;1.50;;
13483;SDS011;6814;57.786;12.080;2023-02-21T07:30:17;12.20;;;2.30;;
13483;SDS011;6814;57.786;12.080;2023-02-21T07:32:44;7.60;;;1.73;;
13483;SDS011;6814;57.786;12.080;2023-02-21T07:35:10;10.83;;;1.50;;
13483;SDS011;6814;57.786;12.080;2023-02-21T07:37:38;6.83;;;1.93;;
13483;SDS011;6814;57.786;12.080;2023-02-21T07:40:05;7.37;;;1.90;;
13483;SDS011;6814;57.786;12.080;2023-02-21T07:42:32;8.67;;;2.30;;
13483;SDS011;6814;57.786;12.080;2023-02-21T07:44:58;8.07;;;1.20;;
13483;SDS011;6814;57.786;12.080;2023-02-21T07:47:25;8.17;;;1.87;;
13483;SDS011;6814;57.786;12.080;2023-02-21T07:49:52;7.20;;;0.90;;
13483;SDS011;6814;57.786;12.080;2023-02-21T07:52:19;8.87;;;1.37;;
13483;SDS011;6814;57.786;12.080;2023-02-21T07:54:47;5.97;;;0.90;;
13483;SDS011;6814;57.786;12.080;2023-02-21T07:57:14;5.43;;;1.30;;
13483;SDS011;6814;57.786;12.080;2023-02-21T07:59:40;5.70;;;0.70;;
13483;SDS011;6814;57.786;12.080;2023-02-21T08:02:08;2.23;;;0.57;;
13483;SDS011;6814;57.786;12.080;2023-02-21T08:04:34;1.57;;;0.67;;
13483;SDS011;6814;57.786;12.080;2023-02-21T08:07:01;2.93;;;0.70;;
13483;SDS011;6814;57.786;12.080;2023-02-21T08:09:28;3.00;;;0.73;;
13483;SDS011;6814;57.786;12.080;2023-02-21T08:11:56;2.87;;;0.63;;
13483;SDS011;6814;57.786;12.080;2023-02-21T08:14:22;4.47;;;0.47;;
13483;SDS011;6814;57.786;12.080;2023-02-21T08:16:49;3.03;;;0.70;;
13483;SDS011;6814;57.786;12.080;2023-02-21T08:19:15;3.27;;;0.80;;
13483;SDS011;6814;57.786;12.080;2023-02-21T08:21:43;2.93;;;0.40;;
13483;SDS011;6814;57.786;12.080;2023-02-21T08:24:10;3.43;;;0.50;;
13483;SDS011;6814;57.786;12.080;2023-02-21T08:26:37;2.03;;;0.57;;
13483;SDS011;6814;57.786;12.080;2023-02-21T08:29:05;2.40;;;0.53;;
13483;SDS011;6814;57.786;12.080;2023-02-21T08:31:33;1.23;;;0.67;;
13483;SDS011;6814;57.786;12.080;2023-02-21T08:33:59;1.40;;;0.40;;
13483;SDS011;6814;57.786;12.080;2023-02-21T08:36:29;1.20;;;0.30;;
13483;SDS011;6814;57.786;12.080;2023-02-21T08:38:55;1.17;;;0.33;;
13483;SDS011;6814;57.786;12.080;2023-02-21T08:41:22;1.23;;;0.40;;
13483;SDS011;6814;57.786;12.080;2023-02-21T08:43:49;1.80;;;0.27;;
13483;SDS011;6814;57.786;12.080;2023-02-21T08:46:17;0.10;;;0.10;;
13483;SDS011;6814;57.786;12.080;2023-02-21T08:48:43;2.10;;;0.50;;
13483;SDS011;6814;57.786;12.080;2023-02-21T08:51:10;0.17;;;0.10;;
13483;SDS011;6814;57.786;12.080;2023-02-21T08:53:37;1.17;;;0.20;;
13483;SDS011;6814;57.786;12.080;2023-02-21T08:56:03;0.23;;;0.20;;
13483;SDS011;6814;57.786;12.080;2023-02-21T08:58:30;0.10;;;0.10;;
13483;SDS011;6814;57.786;12.080;2023-02-21T09:00:56;0.40;;;0.10;;
13483;SDS011;6814;57.786;12.080;2023-02-21T09:03:24;0.40;;;0.10;;
13483;SDS011;6814;57.786;12.080;2023-02-21T09:05:51;0.93;;;0.10;;
13483;SDS011;6814;57.786;12.080;2023-02-21T09:08:17;0.20;;;0.07;;
13483;SDS011;6814;57.786;12.080;2023-02-21T09:10:46;1.80;;;0.10;;
13483;SDS011;6814;57.786;12.080;2023-02-21T09:13:13;0.63;;;0.10;;
13483;SDS011;6814;57.786;12.080;2023-02-21T09:15:39;1.63;;;0.33;;
13483;SDS011;6814;57.786;12.080;2023-02-21T09:18:06;0.67;;;0.17;;
13483;SDS011;6814;57.786;12.080;2023-02-21T09:20:33;0.30;;;0.20;;
13483;SDS011;6814;57.786;12.080;2023-02-21T09:23:01;0.30;;;0.10;;
13483;SDS011;6814;57.786;12.080;2023-02-21T09:25:28;0.10;;;0.10;;
13483;SDS011;6814;57.786;12.080;2023-02-21T09:27:54;1.13;;;0.20;;
13483;SDS011;6814;57.786;12.080;2023-02-21T09:30:26;0.83;;;0.20;;
13483;SDS011;6814;57.786;12.080;2023-02-21T09:32:53;0.40;;;0.20;;
13483;SDS011;6814;57.786;12.080;2023-02-21T09:35:20;0.93;;;0.20;;
13483;SDS011;6814;57.786;12.080;2023-02-21T09:37:48;0.10;;;0.10;;
13483;SDS011;6814;57.786;12.080;2023-02-21T09:40:17;0.10;;;0.10;;
13483;SDS011;6814;57.786;12.080;2023-02-21T09:42:47;0.20;;;0.10;;
13483;SDS011;6814;57.786;12.080;2023-02-21T09:45:14;0.20;;;0.10;;
13483;SDS011;6814;57.786;12.080;2023-02-21T09:47:41;0.20;;;0.10;;
13483;SDS011;6814;57.786;12.080;2023-02-21T09:50:10;0.10;;;0.00;;
13483;SDS011;6814;57.786;12.080;2023-02-21T09:52:38;0.07;;;0.07;;
13483;SDS011;6814;57.786;12.080;2023-02-21T09:55:07;0.17;;;0.10;;
13483;SDS011;6814;57.786;12.080;2023-02-21T09:57:38;1.47;;;0.10;;
13483;SDS011;6814;57.786;12.080;2023-02-21T10:00:09;0.10;;;0.10;;
13483;SDS011;6814;57.786;12.080;2023-02-21T10:02:42;0.07;;;0.07;;
13483;SDS011;6814;57.786;12.080;2023-02-21T10:05:17;0.47;;;0.10;;
13483;SDS011;6814;57.786;12.080;2023-02-21T10:07:49;0.03;;;0.00;;
13483;SDS011;6814;57.786;12.080;2023-02-21T10:10:19;0.10;;;0.10;;
13483;SDS011;6814;57.786;12.080;2023-02-21T10:12:48;0.10;;;0.07;;
13483;SDS011;6814;57.786;12.080;2023-02-21T10:15:20;0.20;;;0.00;;
13483;SDS011;6814;57.786;12.080;2023-02-21T10:17:49;0.00;;;0.00;;
13483;SDS011;6814;57.786;12.080;2023-02-21T10:20:20;0.10;;;0.10;;
13483;SDS011;6814;57.786;12.080;2023-02-21T10:22:48;0.13;;;0.10;;
13483;SDS011;6814;57.786;12.080;2023-02-21T10:25:22;0.40;;;0.20;;
13483;SDS011;6814;57.786;12.080;2023-02-21T10:27:52;0.20;;;0.20;;
13483;SDS011;6814;57.786;12.080;2023-02-21T10:30:23;0.20;;;0.10;;
13483;SDS011;6814;57.786;12.080;2023-02-21T10:32:51;1.27;;;0.10;;
13483;SDS011;6814;57.786;12.080;2023-02-21T10:35:18;0.00;;;0.00;;
13483;SDS011;6814;57.786;12.080;2023-02-21T10:37:45;0.10;;;0.00;;
13483;SDS011;6814;57.786;12.080;2023-02-21T10:40:18;0.10;;;0.10;;
13483;SDS011;6814;57.786;12.080;2023-02-21T10:42:49;0.30;;;0.20;;
13483;SDS011;6814;57.786;12.080;2023-02-21T10:45:18;0.00;;;0.00;;
13483;SDS011;6814;57.786;12.080;2023-02-21T10:47:48;0.00;;;0.00;;
13483;SDS011;6814;57.786;12.080;2023-02-21T10:53:00;0.07;;;0.07;;
13483;SDS011;6814;57.786;12.080;2023-02-21T10:55:26;0.10;;;0.10;;
13483;SDS011;6814;57.786;12.080;2023-02-21T10:57:55;0.10;;;0.03;;
13483;SDS011;6814;57.786;12.080;2023-02-21T11:00:23;0.00;;;0.00;;
13483;SDS011;6814;57.786;12.080;2023-02-21T11:02:50;0.07;;;0.07;;
13483;SDS011;6814;57.786;12.080;2023-02-21T11:05:20;0.23;;;0.20;;
13483;SDS011;6814;57.786;12.080;2023-02-21T11:07:54;0.17;;;0.17;;
13483;SDS011;6814;57.786;12.080;2023-02-21T11:10:27;0.60;;;0.10;;
13483;SDS011;6814;57.786;12.080;2023-02-21T11:13:03;0.30;;;0.10;;
13483;SDS011;6814;57.786;12.080;2023-02-21T11:15:30;0.10;;;0.10;;
13483;SDS011;6814;57.786;12.080;2023-02-21T11:18:10;0.00;;;0.00;;
13483;SDS011;6814;57.786;12.080;2023-02-21T11:20:38;0.10;;;0.10;;
13483;SDS011;6814;57.786;12.080;2023-02-21T11:23:15;0.50;;;0.30;;
13483;SDS011;6814;57.786;12.080;2023-02-21T11:25:43;0.10;;;0.10;;
13483;SDS011;6814;57.786;12.080;2023-02-21T11:28:18;1.00;;;0.10;;
13483;SDS011;6814;57.786;12.080;2023-02-21T11:30:47;0.87;;;0.33;;
13483;SDS011;6814;57.786;12.080;2023-02-21T11:33:17;0.17;;;0.17;;
13483;SDS011;6814;57.786;12.080;2023-02-21T11:35:45;1.07;;;0.20;;
13483;SDS011;6814;57.786;12.080;2023-02-21T11:40:54;0.40;;;0.10;;
13483;SDS011;6814;57.786;12.080;2023-02-21T11:43:23;3.23;;;0.27;;
13483;SDS011;6814;57.786;12.080;2023-02-21T11:48:36;0.20;;;0.20;;
13483;SDS011;6814;57.786;12.080;2023-02-21T11:51:05;0.20;;;0.20;;
13483;SDS011;6814;57.786;12.080;2023-02-21T11:53:35;0.40;;;0.30;;
13483;SDS011;6814;57.786;12.080;2023-02-21T11:56:04;0.30;;;0.13;;
13483;SDS011;6814;57.786;12.080;2023-02-21T11:58:33;0.33;;;0.20;;
13483;SDS011;6814;57.786;12.080;2023-02-21T12:01:03;0.10;;;0.10;;
13483;SDS011;6814;57.786;12.080;2023-02-21T12:03:35;0.10;;;0.10;;
13483;SDS011;6814;57.786;12.080;2023-02-21T12:06:04;0.27;;;0.20;;
13483;SDS011;6814;57.786;12.080;2023-02-21T12:08:36;0.87;;;0.20;;
13483;SDS011;6814;57.786;12.080;2023-02-21T12:11:16;0.40;;;0.13;;
13483;SDS011;6814;57.786;12.080;2023-02-21T12:13:47;0.20;;;0.20;;
13483;SDS011;6814;57.786;12.080;2023-02-21T12:16:17;0.50;;;0.20;;
13483;SDS011;6814;57.786;12.080;2023-02-21T12:18:51;0.00;;;0.00;;
13483;SDS011;6814;57.786;12.080;2023-02-21T12:21:27;0.10;;;0.10;;
13483;SDS011;6814;57.786;12.080;2023-02-21T12:23:58;0.10;;;0.10;;
13483;SDS011;6814;57.786;12.080;2023-02-21T12:26:32;0.00;;;0.00;;
13483;SDS011;6814;57.786;12.080;2023-02-21T12:29:08;0.00;;;0.00;;
13483;SDS011;6814;57.786;12.080;2023-02-21T12:31:45;0.10;;;0.10;;
13483;SDS011;6814;57.786;12.080;2023-02-21T12:34:19;0.83;;;0.10;;
13483;SDS011;6814;57.786;12.080;2023-02-21T12:36:54;0.10;;;0.00;;
13483;SDS011;6814;57.786;12.080;2023-02-21T12:39:27;0.13;;;0.00;;
13483;SDS011;6814;57.786;12.080;2023-02-21T12:42:10;0.00;;;0.00;;
13483;SDS011;6814;57.786;12.080;2023-02-21T12:44:42;0.90;;;0.03;;
13483;SDS011;6814;57.786;12.080;2023-02-21T12:47:11;0.00;;;0.00;;
13483;SDS011;6814;57.786;12.080;2023-02-21T12:49:41;0.00;;;0.00;;
13483;SDS011;6814;57.786;12.080;2023-02-21T12:52:12;0.20;;;0.10;;
13483;SDS011;6814;57.786;12.080;2023-02-21T12:54:41;0.10;;;0.00;;
13483;SDS011;6814;57.786;12.080;2023-02-21T12:57:10;0.30;;;0.00;;
13483;SDS011;6814;57.786;12.080;2023-02-21T12:59:44;0.00;;;0.00;;
13483;SDS011;6814;57.786;12.080;2023-02-21T13:02:14;0.10;;;0.10;;
13483;SDS011;6814;57.786;12.080;2023-02-21T13:04:43;0.93;;;0.10;;
13483;SDS011;6814;57.786;12.080;2023-02-21T13:07:11;0.00;;;0.00;;
13483;SDS011;6814;57.786;12.080;2023-02-21T13:09:44;0.00;;;0.00;;
13483;SDS011;6814;57.786;12.080;2023-02-21T13:12:13;0.10;;;0.10;;
13483;SDS011;6814;57.786;12.080;2023-02-21T13:14:42;0.10;;;0.00;;
13483;SDS011;6814;57.786;12.080;2023-02-21T13:17:11;0.20;;;0.03;;
13483;SDS011;6814;57.786;12.080;2023-02-21T13:19:40;0.30;;;0.20;;
13483;SDS011;6814;57.786;12.080;2023-02-21T13:22:10;0.10;;;0.10;;
13483;SDS011;6814;57.786;12.080;2023-02-21T13:24:43;0.00;;;0.00;;
13483;SDS011;6814;57.786;12.080;2023-02-21T13:27:24;0.10;;;0.10;;
13483;SDS011;6814;57.786;12.080;2023-02-21T13:29:59;1.03;;;0.10;;
13483;SDS011;6814;57.786;12.080;2023-02-21T13:32:26;0.10;;;0.10;;
13483;SDS011;6814;57.786;12.080;2023-02-21T13:34:53;0.30;;;0.10;;
13483;SDS011;6814;57.786;12.080;2023-02-21T13:37:21;0.00;;;0.00;;
13483;SDS011;6814;57.786;12.080;2023-02-21T13:39:49;0.10;;;0.03;;
13483;SDS011;6814;57.786;12.080;2023-02-21T13:42:17;1.40;;;0.20;;
13483;SDS011;6814;57.786;12.080;2023-02-21T13:44:44;0.20;;;0.10;;
13483;SDS011;6814;57.786;12.080;2023-02-21T13:47:14;0.10;;;0.10;;
13483;SDS011;6814;57.786;12.080;2023-02-21T13:49:51;0.10;;;0.07;;
13483;SDS011;6814;57.786;12.080;2023-02-21T13:52:49;0.43;;;0.20;;
13483;SDS011;6814;57.786;12.080;2023-02-21T13:55:21;0.10;;;0.10;;
13483;SDS011;6814;57.786;12.080;2023-02-21T13:57:48;0.10;;;0.10;;
13483;SDS011;6814;57.786;12.080;2023-02-21T14:03:27;0.47;;;0.20;;
13483;SDS011;6814;57.786;12.080;2023-02-21T14:06:15;0.33;;;0.10;;
13483;SDS011;6814;57.786;12.080;2023-02-21T14:08:46;0.10;;;0.10;;
13483;SDS011;6814;57.786;12.080;2023-02-21T14:11:13;0.40;;;0.00;;
13483;SDS011;6814;57.786;12.080;2023-02-21T14:13:41;0.30;;;0.10;;
13483;SDS011;6814;57.786;12.080;2023-02-21T14:16:15;0.80;;;0.13;;
13483;SDS011;6814;57.786;12.080;2023-02-21T14:18:44;0.90;;;0.10;;
13483;SDS011;6814;57.786;12.080;2023-02-21T14:21:14;0.13;;;0.13;;
13483;SDS011;6814;57.786;12.080;2023-02-21T14:23:41;0.10;;;0.10;;
13483;SDS011;6814;57.786;12.080;2023-02-21T14:28:59;0.10;;;0.10;;
13483;SDS011;6814;57.786;12.080;2023-02-21T14:31:44;0.40;;;0.13;;
13483;SDS011;6814;57.786;12.080;2023-02-21T14:34:12;0.10;;;0.10;;
13483;SDS011;6814;57.786;12.080;2023-02-21T14:36:39;0.17;;;0.10;;
13483;SDS011;6814;57.786;12.080;2023-02-21T14:39:07;0.30;;;0.27;;
13483;SDS011;6814;57.786;12.080;2023-02-21T14:41:35;0.47;;;0.47;;
13483;SDS011;6814;57.786;12.080;2023-02-21T14:44:08;0.43;;;0.43;;
13483;SDS011;6814;57.786;12.080;2023-02-21T14:46:53;0.60;;;0.60;;
13483;SDS011;6814;57.786;12.080;2023-02-21T14:49:39;3.93;;;0.60;;
13483;SDS011;6814;57.786;12.080;2023-02-21T14:52:21;1.10;;;0.50;;
13483;SDS011;6814;57.786;12.080;2023-02-21T14:55:00;1.40;;;0.40;;
13483;SDS011;6814;57.786;12.080;2023-02-21T14:57:37;0.77;;;0.73;;
13483;SDS011;6814;57.786;12.080;2023-02-21T15:00:16;3.30;;;0.60;;
13483;SDS011;6814;57.786;12.080;2023-02-21T15:02:45;0.50;;;0.50;;
13483;SDS011;6814;57.786;12.080;2023-02-21T15:05:16;1.73;;;0.60;;
13483;SDS011;6814;57.786;12.080;2023-02-21T15:07:47;0.47;;;0.37;;
13483;SDS011;6814;57.786;12.080;2023-02-21T15:10:23;0.93;;;0.50;;
13483;SDS011;6814;57.786;12.080;2023-02-21T15:12:50;0.37;;;0.37;;
13483;SDS011;6814;57.786;12.080;2023-02-21T15:15:18;0.60;;;0.50;;
13483;SDS011;6814;57.786;12.080;2023-02-21T15:17:53;0.50;;;0.50;;
13483;SDS011;6814;57.786;12.080;2023-02-21T15:20:22;3.27;;;0.50;;
13483;SDS011;6814;57.786;12.080;2023-02-21T15:22:54;1.27;;;0.30;;
13483;SDS011;6814;57.786;12.080;2023-02-21T15:25:20;0.30;;;0.30;;
13483;SDS011;6814;57.786;12.080;2023-02-21T15:30:34;0.43;;;0.30;;
13483;SDS011;6814;57.786;12.080;2023-02-21T15:33:04;0.63;;;0.50;;